createdAt,value
2018-06-24T00:00:06.247Z,101369.53
2018-06-24T00:02:36.370Z,101378.86
2018-06-24T00:05:05.918Z,101375.36
2018-06-24T00:07:35.393Z,101370.02
2018-06-24T00:10:05.543Z,101370.45
2018-06-24T00:12:35.330Z,101369.52
2018-06-24T00:15:05.334Z,101368.21
2018-06-24T00:17:34.967Z,101374.42
2018-06-24T00:20:04.804Z,101370.46
2018-06-24T00:22:34.606Z,101373.13
2018-06-24T00:25:04.183Z,101373.59
2018-06-24T00:27:33.993Z,101370.97
2018-06-24T00:30:03.629Z,101365.28
2018-06-24T00:32:33.182Z,101364.44
2018-06-24T00:35:02.837Z,101370.19
2018-06-24T00:37:32.450Z,101374.17
2018-06-24T00:40:01.649Z,101378.14
2018-06-24T00:42:31.459Z,101373.76
2018-06-24T00:45:01.086Z,101372.42
2018-06-24T00:47:31.011Z,101379.45
2018-06-24T00:50:00.709Z,101372.39
2018-06-24T00:52:30.123Z,101268.81
2018-06-24T00:54:59.869Z,101367.55
2018-06-24T00:57:30.002Z,101370.58
2018-06-24T01:00:10.619Z,101368.85
2018-06-24T01:02:40.763Z,101357.83
2018-06-24T01:05:11.129Z,101364.45
2018-06-24T01:07:40.837Z,101360.95
2018-06-24T01:10:10.681Z,101364.05
2018-06-24T01:12:40.410Z,101362.34
2018-06-24T01:15:10.029Z,101364.98
2018-06-24T01:17:39.785Z,101365.41
2018-06-24T01:20:09.406Z,101365.86
2018-06-24T01:22:39.012Z,101361.95
2018-06-24T01:25:08.589Z,101358.42
2018-06-24T01:27:38.232Z,101356.67
2018-06-24T01:30:07.948Z,101361.04
2018-06-24T01:32:37.518Z,101267.57
2018-06-24T01:35:07.778Z,101358.47
2018-06-24T01:37:37.519Z,101356.75
2018-06-24T01:40:07.230Z,101363.39
2018-06-24T01:42:37.036Z,101356.80
2018-06-24T01:45:06.515Z,101364.77
2018-06-24T01:47:36.262Z,101355.06
2018-06-24T01:50:06.091Z,101354.63
2018-06-24T01:52:35.692Z,101364.77
2018-06-24T01:55:05.761Z,101366.03
2018-06-24T01:57:35.574Z,101367.36
2018-06-24T02:00:05.418Z,101359.42
2018-06-24T02:02:35.478Z,101364.71
2018-06-24T02:05:05.114Z,101358.53
2018-06-24T02:07:34.742Z,101355.95
2018-06-24T02:10:04.390Z,101355.05
2018-06-24T02:12:34.042Z,101357.67
2018-06-24T02:15:04.134Z,101361.23
2018-06-24T02:17:34.349Z,101356.86
2018-06-24T02:20:04.121Z,101361.28
2018-06-24T02:22:33.772Z,101364.33
2018-06-24T02:25:03.381Z,101356.86
2018-06-24T02:27:32.843Z,101353.81
2018-06-24T02:30:02.452Z,101345.48
2018-06-24T02:32:32.325Z,101346.36
2018-06-24T02:35:01.801Z,101343.27
2018-06-24T02:37:31.252Z,101353.41
2018-06-24T02:40:00.701Z,101352.55
2018-06-24T02:42:30.149Z,101353.39
2018-06-24T02:45:00.016Z,101362.20
2018-06-24T02:47:29.748Z,101361.69
2018-06-24T02:49:59.774Z,101356.84
2018-06-24T02:52:29.256Z,101353.28
2018-06-24T02:54:59.248Z,101352.44
2018-06-24T02:57:29.197Z,101355.54
2018-06-24T02:59:59.065Z,101353.77
2018-06-24T03:02:28.838Z,101359.95
2018-06-24T03:04:58.548Z,101355.13
2018-06-24T03:07:28.285Z,101359.95
2018-06-24T03:09:58.407Z,101359.48
2018-06-24T03:12:27.860Z,101363.86
2018-06-24T03:14:57.665Z,101361.21
2018-06-24T03:17:27.170Z,101361.23
2018-06-24T03:19:56.652Z,101362.08
2018-06-24T03:22:26.300Z,101363.38
2018-06-24T03:24:56.047Z,101361.12
2018-06-24T03:27:25.526Z,101355.36
2018-06-24T03:29:55.263Z,101365.45
2018-06-24T03:32:24.881Z,101358.80
2018-06-24T03:34:54.308Z,101370.69
2018-06-24T03:37:23.993Z,101374.19
2018-06-24T03:39:53.741Z,101371.14
2018-06-24T03:42:23.063Z,101375.95
2018-06-24T03:44:53.556Z,101375.04
2018-06-24T03:47:23.192Z,101372.36
2018-06-24T03:49:52.719Z,101370.22
2018-06-24T03:52:22.370Z,101371.52
2018-06-24T03:54:52.073Z,101374.14
2018-06-24T03:57:21.480Z,101372.30
2018-06-24T03:59:51.223Z,101375.83
2018-06-24T04:02:20.940Z,101375.94
2018-06-24T04:04:50.672Z,101376.34
2018-06-24T04:07:20.290Z,101368.84
2018-06-24T04:09:49.956Z,101380.28
2018-06-24T04:12:19.654Z,101389.08
2018-06-24T04:14:49.400Z,101393.02
2018-06-24T04:17:18.970Z,101397.79
2018-06-24T04:19:48.680Z,101395.14
2018-06-24T04:22:18.247Z,101395.11
2018-06-24T04:24:48.187Z,101396.35
2018-06-24T04:27:17.923Z,101398.03
2018-06-24T04:29:47.425Z,101400.22
2018-06-24T04:32:17.232Z,101392.24
2018-06-24T04:34:47.118Z,101400.09
2018-06-24T04:37:16.636Z,101395.59
2018-06-24T04:39:46.419Z,101403.50
2018-06-24T04:42:16.080Z,101412.33
2018-06-24T04:44:45.460Z,101415.73
2018-06-24T04:47:15.069Z,101422.70
2018-06-24T04:49:44.691Z,101412.98
2018-06-24T04:52:14.050Z,101417.73
2018-06-24T04:54:43.791Z,101425.19
2018-06-24T04:57:13.459Z,101425.98
2018-06-24T04:59:43.035Z,101431.16
2018-06-24T05:02:12.801Z,101432.00
2018-06-24T05:04:42.601Z,101430.61
2018-06-24T05:07:12.039Z,101430.58
2018-06-24T05:09:41.803Z,101431.38
2018-06-24T05:12:11.421Z,101439.67
2018-06-24T05:14:40.783Z,101437.81
2018-06-24T05:17:10.447Z,101439.48
2018-06-24T05:19:40.435Z,101439.44
2018-06-24T05:22:10.191Z,101435.91
2018-06-24T05:24:39.906Z,101436.76
2018-06-24T05:27:09.689Z,101434.07
2018-06-24T05:29:39.290Z,101441.08
2018-06-24T05:32:09.031Z,101441.04
2018-06-24T05:34:38.747Z,101447.16
2018-06-24T05:37:09.172Z,101444.91
2018-06-24T05:39:38.874Z,101441.81
2018-06-24T05:42:08.387Z,101449.67
2018-06-24T05:44:38.129Z,101445.69
2018-06-24T05:47:07.798Z,101440.79
2018-06-24T05:49:37.250Z,101443.00
2018-06-24T05:52:06.978Z,101441.64
2018-06-24T05:54:36.602Z,101439.35
2018-06-24T05:57:06.175Z,101431.31
2018-06-24T05:59:35.861Z,101434.86
2018-06-24T06:02:05.641Z,101437.95
2018-06-24T06:04:35.004Z,101437.02
2018-06-24T06:07:04.649Z,101428.91
2018-06-24T06:09:34.424Z,101432.33
2018-06-24T06:12:04.134Z,101427.78
2018-06-24T06:14:33.810Z,101432.28
2018-06-24T06:17:03.351Z,101435.38
2018-06-24T06:19:32.599Z,101434.86
2018-06-24T06:22:02.204Z,101436.46
2018-06-24T06:24:31.882Z,101444.38
2018-06-24T06:27:01.344Z,101447.05
2018-06-24T06:29:30.929Z,101452.67
2018-06-24T06:32:00.512Z,101449.48
2018-06-24T06:34:29.981Z,101449.88
2018-06-24T06:36:59.741Z,101441.47
2018-06-24T06:39:29.558Z,101445.05
2018-06-24T06:41:58.972Z,101445.81
2018-06-24T06:44:28.674Z,101449.16
2018-06-24T06:46:58.339Z,101453.86
2018-06-24T06:49:27.837Z,101460.37
2018-06-24T06:51:58.466Z,101458.45
2018-06-24T06:54:28.463Z,101457.13
2018-06-24T06:56:58.323Z,101448.31
2018-06-24T06:59:28.101Z,101447.72
2018-06-24T07:01:57.824Z,101450.42
2018-06-24T07:04:27.683Z,101448.51
2018-06-24T07:06:57.445Z,101452.01
2018-06-24T07:09:27.149Z,101459.00
2018-06-24T07:11:56.786Z,101468.16
2018-06-24T07:14:26.804Z,101461.35
2018-06-24T07:16:56.602Z,101469.03
2018-06-24T07:19:26.318Z,101470.63
2018-06-24T07:21:56.396Z,101465.25
2018-06-24T07:24:26.333Z,101463.14
2018-06-24T07:26:55.818Z,101465.70
2018-06-24T07:29:25.703Z,101462.53
2018-06-24T07:31:55.537Z,101463.05
2018-06-24T07:34:25.293Z,101458.03
2018-06-24T07:36:55.113Z,101453.77
2018-06-24T07:39:24.908Z,101453.94
2018-06-24T07:41:54.670Z,101455.28
2018-06-24T07:44:24.822Z,101457.69
2018-06-24T07:46:55.027Z,101454.41
2018-06-24T07:49:24.339Z,101455.10
2018-06-24T07:51:53.848Z,101444.23
2018-06-24T07:54:23.771Z,101447.95
2018-06-24T07:56:53.437Z,101441.47
2018-06-24T07:59:22.847Z,101440.08
2018-06-24T08:01:52.156Z,101452.19
2018-06-24T08:04:22.071Z,101464.06
2018-06-24T08:06:51.693Z,101462.52
2018-06-24T08:09:21.482Z,101460.48
2018-06-24T08:11:51.324Z,101462.27
2018-06-24T08:14:20.776Z,101468.22
2018-06-24T08:16:51.121Z,101466.95
2018-06-24T08:19:20.784Z,101457.46
2018-06-24T08:21:50.208Z,101460.70
2018-06-24T08:24:19.975Z,101452.81
2018-06-24T08:26:49.603Z,101458.38
2018-06-24T08:29:19.188Z,101450.86
2018-06-24T08:31:57.653Z,101459.44
2018-06-24T08:34:27.774Z,101454.16
2018-06-24T08:36:57.648Z,101452.91
2018-06-24T08:39:27.199Z,101456.04
2018-06-24T08:41:56.646Z,101455.53
2018-06-24T08:44:26.734Z,101450.28
2018-06-24T08:46:56.266Z,101458.91
2018-06-24T08:49:25.731Z,101463.01
2018-06-24T08:51:56.065Z,101463.28
2018-06-24T08:54:25.692Z,101462.70
2018-06-24T08:56:55.184Z,101464.77
2018-06-24T08:59:25.182Z,101464.53
2018-06-24T09:01:54.657Z,101463.92
2018-06-24T09:04:24.110Z,101474.23
2018-06-24T09:06:54.200Z,101469.75
2018-06-24T09:09:23.588Z,101474.50
2018-06-24T09:11:53.190Z,101468.26
2018-06-24T09:14:23.026Z,101472.62
2018-06-24T09:16:52.591Z,101479.70
2018-06-24T09:19:21.934Z,101475.88
2018-06-24T09:21:51.950Z,101479.52
2018-06-24T09:24:21.554Z,101482.39
2018-06-24T09:26:51.183Z,101482.39
2018-06-24T09:29:21.094Z,101483.14
2018-06-24T09:31:50.524Z,101491.17
2018-06-24T09:34:20.011Z,101483.36
2018-06-24T09:36:50.119Z,101488.70
2018-06-24T09:39:19.522Z,101481.20
2018-06-24T09:41:49.070Z,101483.69
2018-06-24T09:44:20.092Z,101482.88
2018-06-24T09:46:49.500Z,101483.52
2018-06-24T09:49:19.197Z,101481.58
2018-06-24T09:51:48.868Z,101467.59
2018-06-24T09:54:18.223Z,101494.41
2018-06-24T09:56:47.898Z,101483.69
2018-06-24T09:59:17.521Z,101491.42
2018-06-24T10:01:47.030Z,101485.80
2018-06-24T10:04:16.530Z,101495.44
2018-06-24T10:06:46.166Z,101490.97
2018-06-24T10:09:15.733Z,101488.97
2018-06-24T10:11:45.329Z,101490.12
2018-06-24T10:14:15.455Z,101499.70
2018-06-24T10:16:45.132Z,101498.47
2018-06-24T10:19:14.748Z,101497.44
2018-06-24T10:21:44.280Z,101495.75
2018-06-24T10:24:13.795Z,101496.97
2018-06-24T10:26:43.469Z,101493.45
2018-06-24T10:29:13.486Z,101496.33
2018-06-24T10:31:42.896Z,101491.47
2018-06-24T10:34:12.518Z,101496.90
2018-06-24T10:36:42.224Z,101492.30
2018-06-24T10:39:12.679Z,101497.97
2018-06-24T10:41:42.153Z,101295.14
2018-06-24T10:44:11.721Z,101502.81
2018-06-24T10:46:41.209Z,101501.25
2018-06-24T10:49:10.883Z,101492.72
2018-06-24T10:51:40.465Z,101487.13
2018-06-24T10:54:10.006Z,101487.30
2018-06-24T10:56:40.151Z,101488.13
2018-06-24T10:59:09.794Z,101439.23
2018-06-24T11:01:39.620Z,101489.67
2018-06-24T11:04:09.057Z,101489.34
2018-06-24T11:06:39.028Z,101486.77
2018-06-24T11:09:10.269Z,101485.77
2018-06-24T11:11:39.763Z,101492.47
2018-06-24T11:14:09.561Z,101489.42
2018-06-24T11:16:39.258Z,101493.16
2018-06-24T11:19:09.083Z,101490.23
2018-06-24T11:21:38.695Z,101493.94
2018-06-24T11:24:08.540Z,101494.36
2018-06-24T11:26:38.362Z,101494.17
2018-06-24T11:29:08.050Z,101492.91
2018-06-24T11:31:38.129Z,101498.12
2018-06-24T11:34:07.827Z,101495.91
2018-06-24T11:36:37.899Z,101495.20
2018-06-24T11:39:10.092Z,101498.38
2018-06-24T11:41:40.247Z,101498.70
2018-06-24T11:44:09.980Z,101500.50
2018-06-24T11:46:39.971Z,101500.88
2018-06-24T11:49:09.509Z,101507.98
2018-06-24T11:51:39.998Z,101510.14
2018-06-24T11:54:09.811Z,101509.04
2018-06-24T11:56:39.295Z,101508.22
2018-06-24T11:59:08.819Z,101504.11
2018-06-24T12:01:39.208Z,101503.81
2018-06-24T12:04:08.743Z,101503.84
2018-06-24T12:06:38.079Z,101504.39
2018-06-24T12:09:11.088Z,101502.27
2018-06-24T12:11:40.622Z,101504.09
2018-06-24T12:14:10.665Z,101499.45
2018-06-24T12:16:40.884Z,101506.64
2018-06-24T12:19:10.925Z,101503.37
2018-06-24T12:21:40.681Z,101507.48
2018-06-24T12:24:10.487Z,101502.56
2018-06-24T12:26:39.976Z,101508.45
2018-06-24T12:29:09.354Z,101508.07
2018-06-24T12:31:38.980Z,101506.91
2018-06-24T12:34:08.848Z,101506.94
2018-06-24T12:36:42.721Z,101505.74
2018-06-24T12:39:14.998Z,101499.61
2018-06-24T12:41:44.973Z,101504.70
2018-06-24T12:44:14.854Z,101497.33
2018-06-24T12:46:44.677Z,101494.46
2018-06-24T12:49:14.524Z,101498.66
2018-06-24T12:51:44.223Z,101499.19
2018-06-24T12:54:13.846Z,101493.46
2018-06-24T12:56:43.922Z,101497.42
2018-06-24T12:59:13.603Z,101493.61
2018-06-24T13:01:43.475Z,101492.55
2018-06-24T13:04:13.298Z,101497.00
2018-06-24T13:06:43.107Z,101493.26
2018-06-24T13:09:12.714Z,101491.84
2018-06-24T13:11:42.343Z,101484.03
2018-06-24T13:14:11.926Z,101488.23
2018-06-24T13:16:41.573Z,101480.58
2018-06-24T13:19:11.439Z,101479.21
2018-06-24T13:21:41.158Z,101470.02
2018-06-24T13:24:10.550Z,101472.87
2018-06-24T13:26:40.541Z,101467.58
2018-06-24T13:29:10.247Z,101471.99
2018-06-24T13:31:39.581Z,101463.95
2018-06-24T13:34:09.406Z,101461.00
2018-06-24T13:36:39.275Z,101466.49
2018-06-24T13:39:10.588Z,101462.73
2018-06-24T13:41:40.587Z,101463.41
2018-06-24T13:44:10.242Z,101461.53
2018-06-24T13:46:39.949Z,101459.65
2018-06-24T13:49:09.909Z,101459.84
2018-06-24T13:51:39.642Z,101463.36
2018-06-24T13:54:09.091Z,101462.61
2018-06-24T13:56:38.767Z,101463.63
2018-06-24T13:59:08.543Z,101467.58
2018-06-24T14:01:38.318Z,101462.33
2018-06-24T14:04:07.972Z,101458.69
2018-06-24T14:06:37.646Z,101466.63
2018-06-24T14:09:10.309Z,101460.18
2018-06-24T14:11:39.999Z,101460.72
2018-06-24T14:14:10.186Z,101465.70
2018-06-24T14:16:40.049Z,101468.38
2018-06-24T14:19:09.553Z,101460.45
2018-06-24T14:21:38.869Z,101457.66
2018-06-24T14:24:08.687Z,101457.66
2018-06-24T14:26:37.808Z,101458.45
2018-06-24T14:29:06.988Z,101455.90
2018-06-24T14:31:36.973Z,101455.77
2018-06-24T14:34:06.496Z,101456.19
2018-06-24T14:36:36.111Z,101453.28
2018-06-24T14:39:08.261Z,101457.34
2018-06-24T14:41:37.925Z,101458.34
2018-06-24T14:44:07.926Z,101464.88
2018-06-24T14:46:37.582Z,101466.75
2018-06-24T14:49:07.037Z,101465.89
2018-06-24T14:51:36.969Z,101458.58
2018-06-24T14:54:06.838Z,101463.14
2018-06-24T14:59:23.794Z,101464.48
2018-06-24T15:01:53.058Z,101458.50
2018-06-24T15:04:22.962Z,101473.18
2018-06-24T15:07:23.160Z,101454.20
2018-06-24T15:09:53.413Z,101462.02
2018-06-24T15:12:23.476Z,101448.80
2018-06-24T15:14:53.099Z,101451.48
2018-06-24T15:17:22.540Z,101451.07
2018-06-24T15:19:52.556Z,101449.45
2018-06-24T15:22:22.067Z,101444.62
2018-06-24T15:24:51.818Z,101449.19
2018-06-24T15:27:21.760Z,101447.64
2018-06-24T15:29:51.160Z,101447.18
2018-06-24T15:32:20.878Z,101446.38
2018-06-24T15:34:50.586Z,101450.92
2018-06-24T15:37:20.242Z,101448.78
2018-06-24T15:39:50.214Z,101454.02
2018-06-24T15:42:20.021Z,101448.05
2018-06-24T15:44:49.440Z,101454.13
2018-06-24T15:47:19.048Z,101455.05
2018-06-24T15:49:48.742Z,101449.34
2018-06-24T15:52:20.451Z,101448.61
2018-06-24T15:54:50.240Z,101442.64
2018-06-24T15:57:20.052Z,101452.87
2018-06-24T15:59:49.285Z,101441.52
2018-06-24T16:02:18.870Z,101443.36
2018-06-24T16:04:49.133Z,101451.14
2018-06-24T16:07:19.491Z,101445.73
2018-06-24T16:09:49.116Z,101442.12
2018-06-24T16:12:18.617Z,101442.81
2018-06-24T16:14:48.192Z,101444.33
2018-06-24T16:17:19.268Z,101441.45
2018-06-24T16:19:48.974Z,101437.27
2018-06-24T16:22:18.412Z,101439.84
2018-06-24T16:24:47.733Z,101423.59
2018-06-24T16:27:17.408Z,101436.64
2018-06-24T16:29:46.444Z,101432.03
2018-06-24T16:32:15.853Z,101435.28
2018-06-24T16:34:45.564Z,101446.69
2018-06-24T16:37:15.067Z,101443.02
2018-06-24T16:39:45.604Z,101440.36
2018-06-24T16:42:15.260Z,101448.70
2018-06-24T16:44:44.592Z,101451.22
2018-06-24T16:47:14.005Z,101452.98
2018-06-24T16:49:43.478Z,101447.89
2018-06-24T16:52:12.785Z,101449.64
2018-06-24T16:54:42.130Z,101448.84
2018-06-24T16:57:11.567Z,101444.48
2018-06-24T16:59:40.761Z,101447.23
2018-06-24T17:02:10.438Z,101443.52
2018-06-24T17:04:39.718Z,101442.88
2018-06-24T17:07:09.125Z,101452.83
2018-06-24T17:09:38.603Z,101446.97
2018-06-24T17:12:08.072Z,101446.74
2018-06-24T17:14:37.352Z,101447.31
2018-06-24T17:17:06.963Z,101446.89
2018-06-24T17:19:36.480Z,101452.02
2018-06-24T17:22:06.241Z,101446.36
2018-06-24T17:24:36.069Z,101450.27
2018-06-24T17:27:05.476Z,101449.50
2018-06-24T17:29:34.940Z,101449.60
2018-06-24T17:32:05.479Z,101442.94
2018-06-24T17:34:35.030Z,101444.70
2018-06-24T17:37:04.468Z,101444.44
2018-06-24T17:39:34.007Z,101451.20
2018-06-24T17:42:03.528Z,101449.83
2018-06-24T17:44:32.981Z,101313.46
2018-06-24T17:47:02.472Z,101457.48
2018-06-24T17:49:32.270Z,101459.03
2018-06-24T17:52:01.716Z,101462.33
2018-06-24T17:54:31.566Z,101461.09
2018-06-24T17:57:00.917Z,101468.09
2018-06-24T17:59:30.077Z,101467.09
2018-06-24T18:01:59.882Z,101463.47
2018-06-24T18:04:29.161Z,101467.28
2018-06-24T18:06:58.515Z,101461.73
2018-06-24T18:09:28.663Z,101473.66
2018-06-24T18:11:58.109Z,101470.98
2018-06-24T18:14:28.943Z,101475.57
2018-06-24T18:19:39.422Z,101473.98
2018-06-24T18:22:09.023Z,101473.90
2018-06-24T18:24:38.628Z,101480.53
2018-06-24T18:27:08.890Z,101478.68
2018-06-24T18:29:38.213Z,101480.36
2018-06-24T18:32:07.769Z,101483.51
2018-06-24T18:34:37.659Z,101481.64
2018-06-24T18:37:07.599Z,101483.66
2018-06-24T18:39:37.534Z,101484.45
2018-06-24T18:42:07.148Z,101492.86
2018-06-24T18:44:36.979Z,101483.22
2018-06-24T18:47:07.031Z,101485.30
2018-06-24T18:49:36.891Z,101482.71
2018-06-24T18:52:06.947Z,101485.52
2018-06-24T18:54:36.880Z,101485.06
2018-06-24T18:57:07.093Z,101491.23
2018-06-24T18:59:36.617Z,101492.56
2018-06-24T19:02:06.387Z,101484.90
2018-06-24T19:04:36.609Z,101489.65
2018-06-24T19:07:06.068Z,101488.79
2018-06-24T19:09:36.090Z,101493.58
2018-06-24T19:12:06.575Z,101484.55
2018-06-24T19:14:36.179Z,101491.83
2018-06-24T19:17:05.647Z,101500.40
2018-06-24T19:19:35.360Z,101501.63
2018-06-24T19:22:04.931Z,101503.73
2018-06-24T19:24:34.602Z,101502.04
2018-06-24T19:27:04.415Z,101500.45
2018-06-24T19:29:34.223Z,101509.45
2018-06-24T19:32:04.175Z,101510.30
2018-06-24T19:34:33.712Z,101511.50
2018-06-24T19:37:03.332Z,101512.33
2018-06-24T19:39:33.170Z,101513.41
2018-06-24T19:42:02.857Z,101511.05
2018-06-24T19:44:32.303Z,101522.97
2018-06-24T19:47:01.869Z,101511.14
2018-06-24T19:49:31.431Z,101514.04
2018-06-24T19:52:00.635Z,101517.77
2018-06-24T19:54:30.142Z,101523.16
2018-06-24T19:56:59.396Z,101525.98
2018-06-24T19:59:28.554Z,101521.98
2018-06-24T20:01:58.120Z,101526.83
2018-06-24T20:04:27.841Z,101523.72
2018-06-24T20:06:57.583Z,101527.39
2018-06-24T20:09:27.049Z,101521.50
2018-06-24T20:11:56.847Z,101518.06
2018-06-24T20:14:26.064Z,101522.83
2018-06-24T20:16:55.572Z,101524.61
2018-06-24T20:19:25.094Z,101522.06
2018-06-24T20:21:54.717Z,101523.16
2018-06-24T20:24:24.418Z,101525.17
2018-06-24T20:26:53.949Z,101532.86
2018-06-24T20:29:23.247Z,101530.16
2018-06-24T20:31:53.093Z,101531.14
2018-06-24T20:34:22.602Z,101534.08
2018-06-24T20:36:52.117Z,101533.08
2018-06-24T20:39:21.801Z,101417.30
2018-06-24T20:41:51.799Z,101246.78
2018-06-24T20:44:21.189Z,101533.28
2018-06-24T20:46:51.957Z,101539.55
2018-06-24T20:49:21.308Z,101528.73
2018-06-24T20:51:50.560Z,101533.34
2018-06-24T20:54:20.408Z,101535.85
2018-06-24T20:56:49.717Z,101535.25
2018-06-24T20:59:19.163Z,101528.55
2018-06-24T21:01:48.760Z,101529.03
2018-06-24T21:04:18.021Z,101534.37
2018-06-24T21:06:47.775Z,101534.70
2018-06-24T21:09:17.489Z,101541.01
2018-06-24T21:11:46.840Z,101541.01
2018-06-24T21:14:16.380Z,101540.23
2018-06-24T21:16:46.141Z,101537.58
2018-06-24T21:19:15.444Z,101535.16
2018-06-24T21:21:45.049Z,101539.55
2018-06-24T21:24:14.555Z,101540.05
2018-06-24T21:26:43.628Z,101542.70
2018-06-24T21:29:13.337Z,101545.72
2018-06-24T21:31:42.943Z,101544.93
2018-06-24T21:34:12.531Z,101540.94
2018-06-24T21:36:42.502Z,101545.86
2018-06-24T21:39:12.247Z,101539.31
2018-06-24T21:41:41.809Z,101540.64
2018-06-24T21:44:11.891Z,101549.17
2018-06-24T21:46:42.080Z,101550.12
2018-06-24T21:49:12.241Z,101551.94
2018-06-24T21:51:41.821Z,101543.36
2018-06-24T21:54:11.487Z,101540.74
2018-06-24T21:56:40.991Z,101545.91
2018-06-24T21:59:10.257Z,101545.18
2018-06-24T22:01:39.819Z,101546.08
2018-06-24T22:04:09.808Z,101546.80
2018-06-24T22:06:39.328Z,101543.55
2018-06-24T22:09:11.261Z,101536.05
2018-06-24T22:11:40.958Z,101535.56
2018-06-24T22:14:12.689Z,101530.93
2018-06-24T22:16:44.187Z,101532.72
2018-06-24T22:19:13.924Z,101525.66
2018-06-24T22:21:43.732Z,101524.63
2018-06-24T22:24:13.323Z,101530.73
2018-06-24T22:26:44.274Z,101530.73
2018-06-24T22:29:13.826Z,101543.05
2018-06-24T22:31:43.137Z,101540.93
2018-06-24T22:34:12.862Z,101541.33
2018-06-24T22:36:42.085Z,101539.94
2018-06-24T22:39:12.777Z,101537.28
2018-06-24T22:41:42.210Z,101542.61
2018-06-24T22:44:12.195Z,101537.28
2018-06-24T22:46:41.434Z,101253.84
2018-06-24T22:49:11.131Z,101537.67
2018-06-24T22:51:40.677Z,101523.64
2018-06-24T22:54:10.225Z,101543.93
2018-06-24T22:56:39.713Z,101537.73
2018-06-24T22:59:20.016Z,101533.39
2018-06-24T23:01:50.869Z,101530.11
2018-06-24T23:04:20.425Z,101531.05
2018-06-24T23:06:50.065Z,101526.55
2018-06-24T23:09:19.647Z,101527.84
2018-06-24T23:11:49.280Z,101530.00
2018-06-24T23:14:18.816Z,101536.25
2018-06-24T23:16:48.500Z,101533.05
2018-06-24T23:19:17.620Z,101539.99
2018-06-24T23:21:46.882Z,101538.61
2018-06-24T23:24:16.192Z,101533.50
2018-06-24T23:26:45.485Z,101539.75
2018-06-24T23:29:14.985Z,101538.04
2018-06-24T23:31:44.777Z,101536.99
2018-06-24T23:34:13.876Z,101541.72
2018-06-24T23:36:43.243Z,101540.39
2018-06-24T23:39:12.782Z,101541.67
2018-06-24T23:41:42.065Z,101543.44
2018-06-24T23:44:11.549Z,101538.02
2018-06-24T23:46:40.821Z,101544.22
2018-06-24T23:49:10.272Z,101554.38
2018-06-24T23:51:39.465Z,101541.86
2018-06-24T23:54:08.859Z,101533.08
2018-06-24T23:56:38.280Z,101531.57
2018-06-24T23:59:07.645Z,101533.09
